Aviation Digital Data Service (ADDS)

Output produced by TAFs form (0459 UTC 25 April 2014)
found at http://aviationweather.gov/adds/tafs/
 
KDMN 242336Z 2500/2524 27010KT P6SM FEW250 
     TEMPO 2500/2502 27012G22KT 
     FM250400 29005KT P6SM SCT250 
     FM251700 24017G27KT P6SM SCT250